sensor_id;sensor_type;location;lat;lon;timestamp;P1;durP1;ratioP1;P2;durP2;ratioP2
25069;SDS011;13064;48.162;11.536;2023-06-10T00:02:25;3.97;;;3.60;;
25069;SDS011;13064;48.162;11.536;2023-06-10T00:04:54;5.35;;;3.88;;
25069;SDS011;13064;48.162;11.536;2023-06-10T00:07:24;6.25;;;4.05;;
25069;SDS011;13064;48.162;11.536;2023-06-10T00:09:51;5.38;;;3.72;;
25069;SDS011;13064;48.162;11.536;2023-06-10T00:12:19;5.50;;;3.80;;
25069;SDS011;13064;48.162;11.536;2023-06-10T00:14:47;4.80;;;3.60;;
25069;SDS011;13064;48.162;11.536;2023-06-10T00:17:16;5.20;;;4.07;;
25069;SDS011;13064;48.162;11.536;2023-06-10T00:19:44;5.22;;;4.07;;
25069;SDS011;13064;48.162;11.536;2023-06-10T00:22:13;5.07;;;3.83;;
25069;SDS011;13064;48.162;11.536;2023-06-10T00:24:42;5.78;;;4.38;;
25069;SDS011;13064;48.162;11.536;2023-06-10T00:27:09;6.32;;;4.57;;
25069;SDS011;13064;48.162;11.536;2023-06-10T00:29:37;7.97;;;4.65;;
25069;SDS011;13064;48.162;11.536;2023-06-10T00:32:05;4.30;;;3.90;;
25069;SDS011;13064;48.162;11.536;2023-06-10T00:34:34;5.03;;;4.35;;
25069;SDS011;13064;48.162;11.536;2023-06-10T00:37:02;5.28;;;4.78;;
25069;SDS011;13064;48.162;11.536;2023-06-10T00:39:30;7.32;;;5.28;;
25069;SDS011;13064;48.162;11.536;2023-06-10T00:41:57;6.15;;;5.13;;
25069;SDS011;13064;48.162;11.536;2023-06-10T00:44:26;8.27;;;4.97;;
25069;SDS011;13064;48.162;11.536;2023-06-10T00:46:53;5.38;;;4.43;;
25069;SDS011;13064;48.162;11.536;2023-06-10T00:49:22;6.68;;;4.57;;
25069;SDS011;13064;48.162;11.536;2023-06-10T00:51:50;5.55;;;4.70;;
25069;SDS011;13064;48.162;11.536;2023-06-10T00:54:19;5.82;;;5.07;;
25069;SDS011;13064;48.162;11.536;2023-06-10T00:56:47;6.05;;;4.70;;
25069;SDS011;13064;48.162;11.536;2023-06-10T00:59:15;5.65;;;4.90;;
25069;SDS011;13064;48.162;11.536;2023-06-10T01:01:44;5.53;;;4.72;;
25069;SDS011;13064;48.162;11.536;2023-06-10T01:04:14;7.40;;;4.90;;
25069;SDS011;13064;48.162;11.536;2023-06-10T01:09:37;5.82;;;4.80;;
25069;SDS011;13064;48.162;11.536;2023-06-10T01:12:19;5.57;;;4.97;;
25069;SDS011;13064;48.162;11.536;2023-06-10T01:14:49;6.70;;;5.20;;
25069;SDS011;13064;48.162;11.536;2023-06-10T01:17:17;6.80;;;5.45;;
25069;SDS011;13064;48.162;11.536;2023-06-10T01:19:53;5.93;;;4.93;;
25069;SDS011;13064;48.162;11.536;2023-06-10T01:22:23;7.07;;;5.22;;
25069;SDS011;13064;48.162;11.536;2023-06-10T01:24:52;7.82;;;5.30;;
25069;SDS011;13064;48.162;11.536;2023-06-10T01:27:20;9.13;;;5.32;;
25069;SDS011;13064;48.162;11.536;2023-06-10T01:29:50;7.15;;;5.45;;
25069;SDS011;13064;48.162;11.536;2023-06-10T01:32:23;9.25;;;6.03;;
25069;SDS011;13064;48.162;11.536;2023-06-10T01:34:54;6.55;;;5.22;;
25069;SDS011;13064;48.162;11.536;2023-06-10T01:37:23;7.55;;;5.60;;
25069;SDS011;13064;48.162;11.536;2023-06-10T01:39:51;8.25;;;5.30;;
25069;SDS011;13064;48.162;11.536;2023-06-10T01:42:20;8.77;;;5.63;;
25069;SDS011;13064;48.162;11.536;2023-06-10T01:44:49;8.27;;;5.57;;
25069;SDS011;13064;48.162;11.536;2023-06-10T01:47:17;6.65;;;5.57;;
25069;SDS011;13064;48.162;11.536;2023-06-10T01:49:44;7.07;;;5.10;;
25069;SDS011;13064;48.162;11.536;2023-06-10T01:52:12;8.40;;;6.05;;
25069;SDS011;13064;48.162;11.536;2023-06-10T01:54:40;6.15;;;5.35;;
25069;SDS011;13064;48.162;11.536;2023-06-10T01:57:07;8.68;;;5.68;;
25069;SDS011;13064;48.162;11.536;2023-06-10T01:59:35;6.82;;;5.55;;
25069;SDS011;13064;48.162;11.536;2023-06-10T02:02:04;6.03;;;5.15;;
25069;SDS011;13064;48.162;11.536;2023-06-10T02:04:32;7.38;;;6.20;;
25069;SDS011;13064;48.162;11.536;2023-06-10T02:07:01;6.07;;;5.40;;
25069;SDS011;13064;48.162;11.536;2023-06-10T02:09:30;6.28;;;5.65;;
25069;SDS011;13064;48.162;11.536;2023-06-10T02:12:04;6.47;;;5.55;;
25069;SDS011;13064;48.162;11.536;2023-06-10T02:14:33;6.85;;;5.40;;
25069;SDS011;13064;48.162;11.536;2023-06-10T02:17:01;7.82;;;5.80;;
25069;SDS011;13064;48.162;11.536;2023-06-10T02:19:29;7.22;;;5.78;;
25069;SDS011;13064;48.162;11.536;2023-06-10T02:21:57;7.35;;;5.90;;
25069;SDS011;13064;48.162;11.536;2023-06-10T02:24:25;6.60;;;5.95;;
25069;SDS011;13064;48.162;11.536;2023-06-10T02:26:52;6.75;;;5.97;;
25069;SDS011;13064;48.162;11.536;2023-06-10T02:29:21;6.47;;;5.60;;
25069;SDS011;13064;48.162;11.536;2023-06-10T02:31:49;7.80;;;5.93;;
25069;SDS011;13064;48.162;11.536;2023-06-10T02:34:19;9.05;;;6.60;;
25069;SDS011;13064;48.162;11.536;2023-06-10T02:36:47;7.25;;;6.15;;
25069;SDS011;13064;48.162;11.536;2023-06-10T02:41:47;6.53;;;5.78;;
25069;SDS011;13064;48.162;11.536;2023-06-10T02:44:16;7.40;;;6.40;;
25069;SDS011;13064;48.162;11.536;2023-06-10T02:46:45;7.88;;;6.68;;
25069;SDS011;13064;48.162;11.536;2023-06-10T02:49:12;7.40;;;6.50;;
25069;SDS011;13064;48.162;11.536;2023-06-10T02:51:41;7.70;;;6.30;;
25069;SDS011;13064;48.162;11.536;2023-06-10T02:54:08;7.20;;;6.40;;
25069;SDS011;13064;48.162;11.536;2023-06-10T02:56:36;8.73;;;6.72;;
25069;SDS011;13064;48.162;11.536;2023-06-10T02:59:14;8.63;;;6.32;;
25069;SDS011;13064;48.162;11.536;2023-06-10T03:01:42;8.65;;;6.57;;
25069;SDS011;13064;48.162;11.536;2023-06-10T03:04:11;6.95;;;6.25;;
25069;SDS011;13064;48.162;11.536;2023-06-10T03:06:46;8.20;;;6.72;;
25069;SDS011;13064;48.162;11.536;2023-06-10T03:09:20;8.82;;;6.65;;
25069;SDS011;13064;48.162;11.536;2023-06-10T03:11:51;8.20;;;6.43;;
25069;SDS011;13064;48.162;11.536;2023-06-10T03:14:19;6.95;;;6.25;;
25069;SDS011;13064;48.162;11.536;2023-06-10T03:16:47;7.60;;;6.65;;
25069;SDS011;13064;48.162;11.536;2023-06-10T03:19:15;8.98;;;6.50;;
25069;SDS011;13064;48.162;11.536;2023-06-10T03:24:14;8.35;;;6.63;;
25069;SDS011;13064;48.162;11.536;2023-06-10T03:26:43;8.52;;;7.03;;
25069;SDS011;13064;48.162;11.536;2023-06-10T03:29:11;8.50;;;6.75;;
25069;SDS011;13064;48.162;11.536;2023-06-10T03:31:39;8.07;;;6.47;;
25069;SDS011;13064;48.162;11.536;2023-06-10T03:34:07;8.55;;;7.25;;
25069;SDS011;13064;48.162;11.536;2023-06-10T03:36:35;8.05;;;6.63;;
25069;SDS011;13064;48.162;11.536;2023-06-10T03:39:04;8.98;;;7.28;;
25069;SDS011;13064;48.162;11.536;2023-06-10T03:41:33;11.63;;;8.23;;
25069;SDS011;13064;48.162;11.536;2023-06-10T03:44:00;8.95;;;7.43;;
25069;SDS011;13064;48.162;11.536;2023-06-10T03:46:28;10.63;;;7.28;;
25069;SDS011;13064;48.162;11.536;2023-06-10T03:48:56;9.27;;;8.05;;
25069;SDS011;13064;48.162;11.536;2023-06-10T03:51:29;9.38;;;8.27;;
25069;SDS011;13064;48.162;11.536;2023-06-10T03:53:57;10.95;;;9.05;;
25069;SDS011;13064;48.162;11.536;2023-06-10T03:56:25;10.23;;;8.48;;
25069;SDS011;13064;48.162;11.536;2023-06-10T03:58:53;10.02;;;8.27;;
25069;SDS011;13064;48.162;11.536;2023-06-10T04:01:21;9.63;;;7.93;;
25069;SDS011;13064;48.162;11.536;2023-06-10T04:03:50;37.78;;;8.90;;
25069;SDS011;13064;48.162;11.536;2023-06-10T04:06:20;14.25;;;7.78;;
25069;SDS011;13064;48.162;11.536;2023-06-10T04:08:49;17.35;;;7.93;;
25069;SDS011;13064;48.162;11.536;2023-06-10T04:11:16;9.52;;;7.97;;
25069;SDS011;13064;48.162;11.536;2023-06-10T04:13:45;9.65;;;8.13;;
25069;SDS011;13064;48.162;11.536;2023-06-10T04:16:13;13.55;;;8.35;;
25069;SDS011;13064;48.162;11.536;2023-06-10T04:18:41;11.27;;;8.07;;
25069;SDS011;13064;48.162;11.536;2023-06-10T04:21:10;10.38;;;8.07;;
25069;SDS011;13064;48.162;11.536;2023-06-10T04:23:37;10.27;;;8.13;;
25069;SDS011;13064;48.162;11.536;2023-06-10T04:26:07;10.65;;;7.68;;
25069;SDS011;13064;48.162;11.536;2023-06-10T04:28:34;9.93;;;8.25;;
25069;SDS011;13064;48.162;11.536;2023-06-10T04:31:03;8.07;;;7.22;;
25069;SDS011;13064;48.162;11.536;2023-06-10T04:33:31;11.68;;;8.10;;
25069;SDS011;13064;48.162;11.536;2023-06-10T04:36:01;10.02;;;7.78;;
25069;SDS011;13064;48.162;11.536;2023-06-10T04:38:30;8.85;;;7.57;;
25069;SDS011;13064;48.162;11.536;2023-06-10T04:40:59;9.07;;;8.15;;
25069;SDS011;13064;48.162;11.536;2023-06-10T04:43:29;11.32;;;8.10;;
25069;SDS011;13064;48.162;11.536;2023-06-10T04:45:59;10.07;;;7.80;;
25069;SDS011;13064;48.162;11.536;2023-06-10T04:48:28;9.57;;;7.63;;
25069;SDS011;13064;48.162;11.536;2023-06-10T04:50:55;8.65;;;6.85;;
25069;SDS011;13064;48.162;11.536;2023-06-10T04:53:23;9.00;;;7.07;;
25069;SDS011;13064;48.162;11.536;2023-06-10T04:55:51;10.43;;;8.05;;
25069;SDS011;13064;48.162;11.536;2023-06-10T04:58:18;9.20;;;7.78;;
25069;SDS011;13064;48.162;11.536;2023-06-10T05:00:46;10.25;;;7.93;;
25069;SDS011;13064;48.162;11.536;2023-06-10T05:03:13;10.18;;;8.43;;
25069;SDS011;13064;48.162;11.536;2023-06-10T05:05:41;8.70;;;7.80;;
25069;SDS011;13064;48.162;11.536;2023-06-10T05:08:09;10.25;;;7.55;;
25069;SDS011;13064;48.162;11.536;2023-06-10T05:10:36;9.57;;;7.55;;
25069;SDS011;13064;48.162;11.536;2023-06-10T05:13:04;11.10;;;8.20;;
25069;SDS011;13064;48.162;11.536;2023-06-10T05:15:32;10.85;;;8.07;;
25069;SDS011;13064;48.162;11.536;2023-06-10T05:17:59;8.60;;;7.63;;
25069;SDS011;13064;48.162;11.536;2023-06-10T05:20:29;9.98;;;8.30;;
25069;SDS011;13064;48.162;11.536;2023-06-10T05:22:57;8.95;;;7.93;;
25069;SDS011;13064;48.162;11.536;2023-06-10T05:25:25;10.10;;;8.50;;
25069;SDS011;13064;48.162;11.536;2023-06-10T05:27:54;11.48;;;8.68;;
25069;SDS011;13064;48.162;11.536;2023-06-10T05:30:21;9.35;;;8.25;;
25069;SDS011;13064;48.162;11.536;2023-06-10T05:32:51;10.40;;;7.95;;
25069;SDS011;13064;48.162;11.536;2023-06-10T05:35:19;9.85;;;8.43;;
25069;SDS011;13064;48.162;11.536;2023-06-10T05:37:47;9.98;;;8.30;;
25069;SDS011;13064;48.162;11.536;2023-06-10T05:40:14;11.63;;;9.23;;
25069;SDS011;13064;48.162;11.536;2023-06-10T05:42:42;9.40;;;8.43;;
25069;SDS011;13064;48.162;11.536;2023-06-10T05:45:10;10.57;;;8.23;;
25069;SDS011;13064;48.162;11.536;2023-06-10T05:47:37;9.15;;;7.78;;
25069;SDS011;13064;48.162;11.536;2023-06-10T05:50:05;10.55;;;7.97;;
25069;SDS011;13064;48.162;11.536;2023-06-10T05:52:34;10.23;;;8.30;;
25069;SDS011;13064;48.162;11.536;2023-06-10T05:55:02;14.18;;;8.00;;
25069;SDS011;13064;48.162;11.536;2023-06-10T05:57:29;8.77;;;7.60;;
25069;SDS011;13064;48.162;11.536;2023-06-10T05:59:57;9.43;;;7.32;;
25069;SDS011;13064;48.162;11.536;2023-06-10T06:02:25;10.80;;;8.30;;
25069;SDS011;13064;48.162;11.536;2023-06-10T06:04:53;11.25;;;8.05;;
25069;SDS011;13064;48.162;11.536;2023-06-10T06:07:20;9.23;;;8.02;;
25069;SDS011;13064;48.162;11.536;2023-06-10T06:09:48;9.23;;;7.07;;
25069;SDS011;13064;48.162;11.536;2023-06-10T06:12:16;8.90;;;7.72;;
25069;SDS011;13064;48.162;11.536;2023-06-10T06:14:43;10.10;;;7.65;;
25069;SDS011;13064;48.162;11.536;2023-06-10T06:17:11;8.07;;;7.28;;
25069;SDS011;13064;48.162;11.536;2023-06-10T06:19:40;10.48;;;7.03;;
25069;SDS011;13064;48.162;11.536;2023-06-10T06:22:07;7.47;;;6.50;;
25069;SDS011;13064;48.162;11.536;2023-06-10T06:24:35;9.27;;;7.40;;
25069;SDS011;13064;48.162;11.536;2023-06-10T06:27:03;7.68;;;6.40;;
25069;SDS011;13064;48.162;11.536;2023-06-10T06:29:31;9.52;;;7.47;;
25069;SDS011;13064;48.162;11.536;2023-06-10T06:31:59;8.43;;;7.22;;
25069;SDS011;13064;48.162;11.536;2023-06-10T06:34:27;9.70;;;7.40;;
25069;SDS011;13064;48.162;11.536;2023-06-10T06:36:55;8.95;;;7.43;;
25069;SDS011;13064;48.162;11.536;2023-06-10T06:39:23;10.02;;;7.82;;
25069;SDS011;13064;48.162;11.536;2023-06-10T06:41:51;9.93;;;8.02;;
25069;SDS011;13064;48.162;11.536;2023-06-10T06:44:25;11.00;;;8.00;;
25069;SDS011;13064;48.162;11.536;2023-06-10T06:46:53;10.18;;;7.55;;
25069;SDS011;13064;48.162;11.536;2023-06-10T06:49:21;9.00;;;7.38;;
25069;SDS011;13064;48.162;11.536;2023-06-10T06:51:48;9.57;;;7.47;;
25069;SDS011;13064;48.162;11.536;2023-06-10T06:54:16;9.85;;;7.85;;
25069;SDS011;13064;48.162;11.536;2023-06-10T06:56:43;8.20;;;7.07;;
25069;SDS011;13064;48.162;11.536;2023-06-10T06:59:11;10.05;;;7.60;;
25069;SDS011;13064;48.162;11.536;2023-06-10T07:01:40;9.73;;;7.32;;
25069;SDS011;13064;48.162;11.536;2023-06-10T07:04:08;11.90;;;6.93;;
25069;SDS011;13064;48.162;11.536;2023-06-10T07:06:35;11.27;;;8.27;;
25069;SDS011;13064;48.162;11.536;2023-06-10T07:09:04;8.93;;;7.32;;
25069;SDS011;13064;48.162;11.536;2023-06-10T07:11:33;8.82;;;6.70;;
25069;SDS011;13064;48.162;11.536;2023-06-10T07:14:00;10.73;;;7.32;;
25069;SDS011;13064;48.162;11.536;2023-06-10T07:16:28;8.23;;;7.28;;
25069;SDS011;13064;48.162;11.536;2023-06-10T07:18:56;9.30;;;6.93;;
25069;SDS011;13064;48.162;11.536;2023-06-10T07:21:23;9.65;;;6.70;;
25069;SDS011;13064;48.162;11.536;2023-06-10T07:23:51;9.43;;;7.22;;
25069;SDS011;13064;48.162;11.536;2023-06-10T07:26:22;7.70;;;6.72;;
25069;SDS011;13064;48.162;11.536;2023-06-10T07:28:49;7.53;;;6.18;;
25069;SDS011;13064;48.162;11.536;2023-06-10T07:31:19;8.40;;;6.75;;
25069;SDS011;13064;48.162;11.536;2023-06-10T07:33:47;6.05;;;5.43;;
25069;SDS011;13064;48.162;11.536;2023-06-10T07:36:14;7.65;;;6.13;;
25069;SDS011;13064;48.162;11.536;2023-06-10T07:38:42;7.90;;;5.80;;
25069;SDS011;13064;48.162;11.536;2023-06-10T07:41:10;5.68;;;5.03;;
25069;SDS011;13064;48.162;11.536;2023-06-10T07:43:37;8.48;;;6.43;;
25069;SDS011;13064;48.162;11.536;2023-06-10T07:46:05;8.88;;;6.85;;
25069;SDS011;13064;48.162;11.536;2023-06-10T07:48:33;6.50;;;5.88;;
25069;SDS011;13064;48.162;11.536;2023-06-10T07:51:01;6.90;;;5.95;;
25069;SDS011;13064;48.162;11.536;2023-06-10T07:53:28;6.32;;;5.45;;
25069;SDS011;13064;48.162;11.536;2023-06-10T07:55:56;7.90;;;5.88;;
25069;SDS011;13064;48.162;11.536;2023-06-10T07:58:23;9.05;;;5.97;;
25069;SDS011;13064;48.162;11.536;2023-06-10T08:00:51;8.23;;;5.10;;
25069;SDS011;13064;48.162;11.536;2023-06-10T08:03:19;6.38;;;4.38;;
25069;SDS011;13064;48.162;11.536;2023-06-10T08:05:47;5.95;;;4.43;;
25069;SDS011;13064;48.162;11.536;2023-06-10T08:08:14;8.50;;;4.53;;
25069;SDS011;13064;48.162;11.536;2023-06-10T08:10:42;6.47;;;4.63;;
25069;SDS011;13064;48.162;11.536;2023-06-10T08:13:09;5.03;;;4.50;;
25069;SDS011;13064;48.162;11.536;2023-06-10T08:15:37;4.63;;;4.10;;
25069;SDS011;13064;48.162;11.536;2023-06-10T08:18:05;6.18;;;4.35;;
25069;SDS011;13064;48.162;11.536;2023-06-10T08:20:32;5.70;;;4.47;;
25069;SDS011;13064;48.162;11.536;2023-06-10T08:23:00;7.30;;;4.38;;
25069;SDS011;13064;48.162;11.536;2023-06-10T08:25:28;5.55;;;4.47;;
25069;SDS011;13064;48.162;11.536;2023-06-10T08:27:55;6.03;;;5.20;;
25069;SDS011;13064;48.162;11.536;2023-06-10T08:30:24;5.63;;;4.85;;
25069;SDS011;13064;48.162;11.536;2023-06-10T08:32:51;5.75;;;4.60;;
25069;SDS011;13064;48.162;11.536;2023-06-10T08:35:19;5.35;;;4.80;;
25069;SDS011;13064;48.162;11.536;2023-06-10T08:37:47;5.00;;;4.50;;
25069;SDS011;13064;48.162;11.536;2023-06-10T08:40:14;4.78;;;4.00;;
25069;SDS011;13064;48.162;11.536;2023-06-10T08:42:49;4.38;;;3.97;;
25069;SDS011;13064;48.162;11.536;2023-06-10T08:45:18;4.93;;;4.00;;
25069;SDS011;13064;48.162;11.536;2023-06-10T08:47:46;5.07;;;4.55;;
25069;SDS011;13064;48.162;11.536;2023-06-10T08:50:18;5.25;;;4.35;;
25069;SDS011;13064;48.162;11.536;2023-06-10T08:52:46;5.30;;;4.80;;
25069;SDS011;13064;48.162;11.536;2023-06-10T08:55:18;4.95;;;4.03;;
25069;SDS011;13064;48.162;11.536;2023-06-10T08:57:55;4.65;;;4.25;;
25069;SDS011;13064;48.162;11.536;2023-06-10T09:00:23;4.38;;;4.00;;
25069;SDS011;13064;48.162;11.536;2023-06-10T09:02:51;4.65;;;3.80;;
25069;SDS011;13064;48.162;11.536;2023-06-10T09:05:19;4.55;;;4.10;;
25069;SDS011;13064;48.162;11.536;2023-06-10T09:07:47;8.05;;;4.30;;
25069;SDS011;13064;48.162;11.536;2023-06-10T09:10:15;5.25;;;4.55;;
25069;SDS011;13064;48.162;11.536;2023-06-10T09:12:43;6.28;;;4.80;;
25069;SDS011;13064;48.162;11.536;2023-06-10T09:15:11;4.70;;;3.90;;
25069;SDS011;13064;48.162;11.536;2023-06-10T09:17:41;4.65;;;4.20;;
25069;SDS011;13064;48.162;11.536;2023-06-10T09:20:08;4.88;;;4.38;;
25069;SDS011;13064;48.162;11.536;2023-06-10T09:22:37;5.55;;;4.57;;
25069;SDS011;13064;48.162;11.536;2023-06-10T09:25:05;5.78;;;4.63;;
25069;SDS011;13064;48.162;11.536;2023-06-10T09:27:50;7.38;;;4.13;;
25069;SDS011;13064;48.162;11.536;2023-06-10T09:30:29;4.63;;;3.78;;
25069;SDS011;13064;48.162;11.536;2023-06-10T09:32:59;4.80;;;4.30;;
25069;SDS011;13064;48.162;11.536;2023-06-10T09:35:28;5.57;;;4.95;;
25069;SDS011;13064;48.162;11.536;2023-06-10T09:37:57;5.00;;;4.47;;
25069;SDS011;13064;48.162;11.536;2023-06-10T09:40:25;7.63;;;4.50;;
25069;SDS011;13064;48.162;11.536;2023-06-10T09:42:55;5.43;;;4.65;;
25069;SDS011;13064;48.162;11.536;2023-06-10T09:45:23;4.40;;;3.70;;
25069;SDS011;13064;48.162;11.536;2023-06-10T09:47:53;4.43;;;3.85;;
25069;SDS011;13064;48.162;11.536;2023-06-10T09:50:22;7.20;;;3.90;;
25069;SDS011;13064;48.162;11.536;2023-06-10T09:52:50;4.32;;;3.67;;
25069;SDS011;13064;48.162;11.536;2023-06-10T09:55:18;3.40;;;3.10;;
25069;SDS011;13064;48.162;11.536;2023-06-10T09:57:48;4.15;;;3.67;;
25069;SDS011;13064;48.162;11.536;2023-06-10T10:00:16;4.60;;;3.70;;
25069;SDS011;13064;48.162;11.536;2023-06-10T10:02:48;4.28;;;3.50;;
25069;SDS011;13064;48.162;11.536;2023-06-10T10:07:44;4.07;;;3.38;;
25069;SDS011;13064;48.162;11.536;2023-06-10T10:10:12;4.57;;;4.15;;
25069;SDS011;13064;48.162;11.536;2023-06-10T10:12:41;4.20;;;3.40;;
25069;SDS011;13064;48.162;11.536;2023-06-10T10:15:10;4.20;;;3.58;;
25069;SDS011;13064;48.162;11.536;2023-06-10T10:17:44;3.80;;;3.38;;
25069;SDS011;13064;48.162;11.536;2023-06-10T10:20:14;3.83;;;3.20;;
25069;SDS011;13064;48.162;11.536;2023-06-10T10:25:23;3.22;;;2.92;;
25069;SDS011;13064;48.162;11.536;2023-06-10T10:27:51;3.58;;;3.20;;
25069;SDS011;13064;48.162;11.536;2023-06-10T10:30:20;3.25;;;2.95;;
25069;SDS011;13064;48.162;11.536;2023-06-10T10:35:21;3.90;;;3.05;;
25069;SDS011;13064;48.162;11.536;2023-06-10T10:37:51;3.35;;;3.05;;
25069;SDS011;13064;48.162;11.536;2023-06-10T10:40:22;3.17;;;2.88;;
25069;SDS011;13064;48.162;11.536;2023-06-10T10:42:50;3.60;;;3.30;;
25069;SDS011;13064;48.162;11.536;2023-06-10T10:45:18;3.63;;;3.20;;
25069;SDS011;13064;48.162;11.536;2023-06-10T10:47:46;3.50;;;3.20;;
25069;SDS011;13064;48.162;11.536;2023-06-10T10:50:19;4.57;;;3.22;;
25069;SDS011;13064;48.162;11.536;2023-06-10T10:52:51;3.60;;;3.17;;
25069;SDS011;13064;48.162;11.536;2023-06-10T10:55:23;3.75;;;2.80;;
25069;SDS011;13064;48.162;11.536;2023-06-10T10:57:54;5.53;;;2.80;;
25069;SDS011;13064;48.162;11.536;2023-06-10T11:08:00;3.50;;;3.10;;
25069;SDS011;13064;48.162;11.536;2023-06-10T11:10:28;3.38;;;3.05;;
25069;SDS011;13064;48.162;11.536;2023-06-10T11:12:56;3.88;;;3.33;;
25069;SDS011;13064;48.162;11.536;2023-06-10T11:15:27;3.97;;;3.28;;
25069;SDS011;13064;48.162;11.536;2023-06-10T11:28:27;3.00;;;2.78;;
25069;SDS011;13064;48.162;11.536;2023-06-10T11:30:58;3.20;;;2.90;;
25069;SDS011;13064;48.162;11.536;2023-06-10T11:33:26;3.63;;;3.05;;
25069;SDS011;13064;48.162;11.536;2023-06-10T11:35:53;3.42;;;3.13;;
25069;SDS011;13064;48.162;11.536;2023-06-10T11:38:21;3.35;;;3.05;;
25069;SDS011;13064;48.162;11.536;2023-06-10T11:40:49;3.20;;;2.90;;
25069;SDS011;13064;48.162;11.536;2023-06-10T11:43:17;3.95;;;3.38;;
25069;SDS011;13064;48.162;11.536;2023-06-10T11:45:45;3.40;;;2.97;;
25069;SDS011;13064;48.162;11.536;2023-06-10T11:48:13;2.65;;;2.45;;
25069;SDS011;13064;48.162;11.536;2023-06-10T11:50:40;3.28;;;2.90;;
25069;SDS011;13064;48.162;11.536;2023-06-10T11:53:08;3.22;;;2.65;;
25069;SDS011;13064;48.162;11.536;2023-06-10T11:58:19;3.05;;;2.75;;
25069;SDS011;13064;48.162;11.536;2023-06-10T12:00:54;2.42;;;2.22;;
25069;SDS011;13064;48.162;11.536;2023-06-10T12:03:25;2.70;;;2.28;;
25069;SDS011;13064;48.162;11.536;2023-06-10T12:08:24;3.63;;;2.60;;
25069;SDS011;13064;48.162;11.536;2023-06-10T12:10:52;3.20;;;2.88;;
25069;SDS011;13064;48.162;11.536;2023-06-10T12:13:19;3.33;;;3.03;;
25069;SDS011;13064;48.162;11.536;2023-06-10T12:15:47;3.22;;;2.90;;
25069;SDS011;13064;48.162;11.536;2023-06-10T12:18:21;3.13;;;2.92;;
25069;SDS011;13064;48.162;11.536;2023-06-10T12:20:49;4.03;;;3.50;;
25069;SDS011;13064;48.162;11.536;2023-06-10T12:23:18;3.10;;;2.80;;
25069;SDS011;13064;48.162;11.536;2023-06-10T12:25:50;4.18;;;2.47;;
25069;SDS011;13064;48.162;11.536;2023-06-10T12:28:25;3.20;;;2.90;;
25069;SDS011;13064;48.162;11.536;2023-06-10T12:31:07;3.15;;;2.85;;
25069;SDS011;13064;48.162;11.536;2023-06-10T12:33:35;2.90;;;2.70;;
25069;SDS011;13064;48.162;11.536;2023-06-10T12:36:03;4.22;;;2.90;;
25069;SDS011;13064;48.162;11.536;2023-06-10T12:38:30;2.97;;;2.50;;
25069;SDS011;13064;48.162;11.536;2023-06-10T12:41:01;3.40;;;3.10;;
25069;SDS011;13064;48.162;11.536;2023-06-10T12:43:30;3.15;;;2.85;;
25069;SDS011;13064;48.162;11.536;2023-06-10T12:46:08;3.08;;;2.78;;
25069;SDS011;13064;48.162;11.536;2023-06-10T12:48:36;3.42;;;2.75;;
25069;SDS011;13064;48.162;11.536;2023-06-10T12:51:03;3.00;;;2.70;;
25069;SDS011;13064;48.162;11.536;2023-06-10T12:53:32;3.85;;;3.03;;
25069;SDS011;13064;48.162;11.536;2023-06-10T12:56:00;4.22;;;3.28;;
25069;SDS011;13064;48.162;11.536;2023-06-10T12:58:28;3.17;;;2.72;;
25069;SDS011;13064;48.162;11.536;2023-06-10T13:00:56;2.80;;;2.50;;
25069;SDS011;13064;48.162;11.536;2023-06-10T13:03:26;4.38;;;2.70;;
25069;SDS011;13064;48.162;11.536;2023-06-10T13:05:53;2.75;;;2.53;;
25069;SDS011;13064;48.162;11.536;2023-06-10T13:08:21;3.53;;;3.22;;
25069;SDS011;13064;48.162;11.536;2023-06-10T13:10:48;4.10;;;3.45;;
25069;SDS011;13064;48.162;11.536;2023-06-10T13:13:16;5.28;;;3.60;;
25069;SDS011;13064;48.162;11.536;2023-06-10T13:15:44;4.78;;;3.17;;
25069;SDS011;13064;48.162;11.536;2023-06-10T13:18:11;5.38;;;3.20;;
25069;SDS011;13064;48.162;11.536;2023-06-10T13:20:39;4.53;;;3.17;;
25069;SDS011;13064;48.162;11.536;2023-06-10T13:23:07;4.75;;;3.42;;
25069;SDS011;13064;48.162;11.536;2023-06-10T13:25:34;3.97;;;3.30;;
25069;SDS011;13064;48.162;11.536;2023-06-10T13:28:02;4.32;;;3.50;;
25069;SDS011;13064;48.162;11.536;2023-06-10T13:30:30;6.70;;;3.08;;
25069;SDS011;13064;48.162;11.536;2023-06-10T13:32:57;4.35;;;3.35;;
25069;SDS011;13064;48.162;11.536;2023-06-10T13:35:25;3.35;;;3.05;;
25069;SDS011;13064;48.162;11.536;2023-06-10T13:37:53;3.90;;;3.13;;
25069;SDS011;13064;48.162;11.536;2023-06-10T13:40:20;7.18;;;3.80;;
25069;SDS011;13064;48.162;11.536;2023-06-10T13:42:48;3.70;;;3.28;;
25069;SDS011;13064;48.162;11.536;2023-06-10T13:45:17;3.40;;;3.10;;
25069;SDS011;13064;48.162;11.536;2023-06-10T13:47:45;4.20;;;3.80;;
25069;SDS011;13064;48.162;11.536;2023-06-10T13:50:12;4.30;;;3.70;;
25069;SDS011;13064;48.162;11.536;2023-06-10T13:52:40;5.57;;;2.88;;
25069;SDS011;13064;48.162;11.536;2023-06-10T13:55:08;3.65;;;3.25;;
25069;SDS011;13064;48.162;11.536;2023-06-10T13:57:36;4.32;;;3.20;;
25069;SDS011;13064;48.162;11.536;2023-06-10T14:00:04;3.67;;;2.92;;
25069;SDS011;13064;48.162;11.536;2023-06-10T14:02:32;7.50;;;3.35;;
25069;SDS011;13064;48.162;11.536;2023-06-10T14:05:00;3.92;;;3.20;;
25069;SDS011;13064;48.162;11.536;2023-06-10T14:07:28;3.63;;;3.10;;
25069;SDS011;13064;48.162;11.536;2023-06-10T14:09:55;3.40;;;3.10;;
25069;SDS011;13064;48.162;11.536;2023-06-10T14:12:23;10.05;;;3.50;;
25069;SDS011;13064;48.162;11.536;2023-06-10T14:14:51;5.07;;;3.28;;
25069;SDS011;13064;48.162;11.536;2023-06-10T14:17:18;5.03;;;3.20;;
25069;SDS011;13064;48.162;11.536;2023-06-10T14:19:46;3.65;;;3.35;;
25069;SDS011;13064;48.162;11.536;2023-06-10T14:22:14;4.00;;;3.00;;
25069;SDS011;13064;48.162;11.536;2023-06-10T14:24:41;4.65;;;2.63;;
25069;SDS011;13064;48.162;11.536;2023-06-10T14:27:09;3.22;;;2.92;;
25069;SDS011;13064;48.162;11.536;2023-06-10T14:29:36;3.50;;;3.17;;
25069;SDS011;13064;48.162;11.536;2023-06-10T14:32:04;6.57;;;3.28;;
25069;SDS011;13064;48.162;11.536;2023-06-10T14:34:35;4.57;;;3.40;;
25069;SDS011;13064;48.162;11.536;2023-06-10T14:37:03;3.33;;;3.00;;
25069;SDS011;13064;48.162;11.536;2023-06-10T14:39:33;3.42;;;3.13;;
25069;SDS011;13064;48.162;11.536;2023-06-10T14:42:01;4.10;;;3.00;;
25069;SDS011;13064;48.162;11.536;2023-06-10T14:44:29;3.42;;;3.13;;
25069;SDS011;13064;48.162;11.536;2023-06-10T14:46:57;5.07;;;2.83;;
25069;SDS011;13064;48.162;11.536;2023-06-10T14:49:25;3.33;;;2.78;;
25069;SDS011;13064;48.162;11.536;2023-06-10T14:51:52;3.30;;;2.30;;
25069;SDS011;13064;48.162;11.536;2023-06-10T14:54:20;3.10;;;2.70;;
25069;SDS011;13064;48.162;11.536;2023-06-10T14:56:48;2.58;;;2.38;;
25069;SDS011;13064;48.162;11.536;2023-06-10T14:59:16;3.33;;;2.83;;
25069;SDS011;13064;48.162;11.536;2023-06-10T15:01:43;3.10;;;2.80;;
25069;SDS011;13064;48.162;11.536;2023-06-10T15:04:11;3.67;;;2.85;;
25069;SDS011;13064;48.162;11.536;2023-06-10T15:06:39;3.55;;;2.75;;
25069;SDS011;13064;48.162;11.536;2023-06-10T15:09:08;3.13;;;2.85;;
25069;SDS011;13064;48.162;11.536;2023-06-10T15:11:35;3.47;;;3.17;;
25069;SDS011;13064;48.162;11.536;2023-06-10T15:14:04;3.53;;;3.22;;
25069;SDS011;13064;48.162;11.536;2023-06-10T15:16:32;5.22;;;3.20;;
25069;SDS011;13064;48.162;11.536;2023-06-10T15:18:59;3.42;;;3.10;;
25069;SDS011;13064;48.162;11.536;2023-06-10T15:21:27;4.43;;;3.10;;